sensor_id;sensor_type;location;lat;lon;timestamp;P1;durP1;ratioP1;P2;durP2;ratioP2
13731;SDS011;6937;56.096;12.664;2022-09-30T00:02:09;1.58;;;0.70;;
13731;SDS011;6937;56.096;12.664;2022-09-30T00:04:36;0.77;;;0.55;;
13731;SDS011;6937;56.096;12.664;2022-09-30T00:07:01;2.08;;;0.60;;
13731;SDS011;6937;56.096;12.664;2022-09-30T00:09:27;2.55;;;1.10;;
13731;SDS011;6937;56.096;12.664;2022-09-30T00:11:52;2.55;;;1.15;;
13731;SDS011;6937;56.096;12.664;2022-09-30T00:14:19;1.42;;;1.30;;
13731;SDS011;6937;56.096;12.664;2022-09-30T00:16:46;3.53;;;1.63;;
13731;SDS011;6937;56.096;12.664;2022-09-30T00:19:12;2.50;;;1.27;;
13731;SDS011;6937;56.096;12.664;2022-09-30T00:21:37;1.80;;;1.40;;
13731;SDS011;6937;56.096;12.664;2022-09-30T00:24:03;2.25;;;1.55;;
13731;SDS011;6937;56.096;12.664;2022-09-30T00:26:31;1.40;;;1.30;;
13731;SDS011;6937;56.096;12.664;2022-09-30T00:28:59;1.23;;;1.10;;
13731;SDS011;6937;56.096;12.664;2022-09-30T00:31:26;0.90;;;0.90;;
13731;SDS011;6937;56.096;12.664;2022-09-30T00:33:54;2.75;;;1.10;;
13731;SDS011;6937;56.096;12.664;2022-09-30T00:36:38;2.22;;;1.40;;
13731;SDS011;6937;56.096;12.664;2022-09-30T00:39:04;0.80;;;0.80;;
13731;SDS011;6937;56.096;12.664;2022-09-30T00:41:32;1.02;;;0.93;;
13731;SDS011;6937;56.096;12.664;2022-09-30T00:43:58;1.02;;;0.93;;
13731;SDS011;6937;56.096;12.664;2022-09-30T00:46:36;1.67;;;1.15;;
13731;SDS011;6937;56.096;12.664;2022-09-30T00:49:04;1.27;;;1.10;;
13731;SDS011;6937;56.096;12.664;2022-09-30T00:51:35;3.55;;;1.10;;
13731;SDS011;6937;56.096;12.664;2022-09-30T00:54:06;2.42;;;1.10;;
13731;SDS011;6937;56.096;12.664;2022-09-30T00:56:38;2.53;;;0.95;;
13731;SDS011;6937;56.096;12.664;2022-09-30T01:05:06;2.05;;;1.17;;
13731;SDS011;6937;56.096;12.664;2022-09-30T01:07:33;2.08;;;1.00;;
13731;SDS011;6937;56.096;12.664;2022-09-30T01:10:00;1.05;;;1.00;;
13731;SDS011;6937;56.096;12.664;2022-09-30T01:12:27;1.85;;;0.98;;
13731;SDS011;6937;56.096;12.664;2022-09-30T01:14:52;1.10;;;0.98;;
13731;SDS011;6937;56.096;12.664;2022-09-30T01:34:16;6.40;;;1.65;;
13731;SDS011;6937;56.096;12.664;2022-09-30T01:37:09;3.85;;;1.42;;
13731;SDS011;6937;56.096;12.664;2022-09-30T01:40:19;14.30;;;1.48;;
13731;SDS011;6937;56.096;12.664;2022-09-30T01:45:34;16.35;;;1.42;;
13731;SDS011;6937;56.096;12.664;2022-09-30T01:53:46;10.05;;;1.17;;
13731;SDS011;6937;56.096;12.664;2022-09-30T01:56:21;45.78;;;2.10;;
13731;SDS011;6937;56.096;12.664;2022-09-30T01:58:55;20.25;;;1.33;;
13731;SDS011;6937;56.096;12.664;2022-09-30T02:02:08;25.95;;;1.23;;
13731;SDS011;6937;56.096;12.664;2022-09-30T02:04:20;12.18;;;1.33;;
13731;SDS011;6937;56.096;12.664;2022-09-30T02:06:51;25.23;;;1.40;;
13731;SDS011;6937;56.096;12.664;2022-09-30T02:09:23;37.40;;;1.75;;
13731;SDS011;6937;56.096;12.664;2022-09-30T02:11:52;26.45;;;1.35;;
13731;SDS011;6937;56.096;12.664;2022-09-30T02:14:24;19.70;;;1.23;;
13731;SDS011;6937;56.096;12.664;2022-09-30T02:22:11;0.60;;;0.60;;
13731;SDS011;6937;56.096;12.664;2022-09-30T02:24:38;2.15;;;0.70;;
13731;SDS011;6937;56.096;12.664;2022-09-30T02:27:10;0.70;;;0.70;;
13731;SDS011;6937;56.096;12.664;2022-09-30T02:29:43;0.70;;;0.70;;
13731;SDS011;6937;56.096;12.664;2022-09-30T02:32:19;0.63;;;0.63;;
13731;SDS011;6937;56.096;12.664;2022-09-30T02:35:04;1.08;;;0.80;;
13731;SDS011;6937;56.096;12.664;2022-09-30T02:37:35;2.75;;;0.90;;
13731;SDS011;6937;56.096;12.664;2022-09-30T02:40:06;0.60;;;0.60;;
13731;SDS011;6937;56.096;12.664;2022-09-30T02:42:37;0.70;;;0.60;;
13731;SDS011;6937;56.096;12.664;2022-09-30T02:45:06;0.80;;;0.75;;
13731;SDS011;6937;56.096;12.664;2022-09-30T02:53:09;2.45;;;0.68;;
13731;SDS011;6937;56.096;12.664;2022-09-30T02:55:42;0.80;;;0.80;;
13731;SDS011;6937;56.096;12.664;2022-09-30T02:58:29;0.60;;;0.60;;
13731;SDS011;6937;56.096;12.664;2022-09-30T03:00:58;0.50;;;0.50;;
13731;SDS011;6937;56.096;12.664;2022-09-30T03:03:26;0.50;;;0.50;;
13731;SDS011;6937;56.096;12.664;2022-09-30T03:05:55;2.55;;;0.75;;
13731;SDS011;6937;56.096;12.664;2022-09-30T03:08:20;1.17;;;0.70;;
13731;SDS011;6937;56.096;12.664;2022-09-30T03:10:46;0.60;;;0.60;;
13731;SDS011;6937;56.096;12.664;2022-09-30T03:27:40;0.70;;;0.70;;
13731;SDS011;6937;56.096;12.664;2022-09-30T03:30:12;0.88;;;0.70;;
13731;SDS011;6937;56.096;12.664;2022-09-30T03:35:42;1.15;;;0.60;;
13731;SDS011;6937;56.096;12.664;2022-09-30T03:40:44;2.83;;;1.10;;
13731;SDS011;6937;56.096;12.664;2022-09-30T03:43:34;1.00;;;1.00;;
13731;SDS011;6937;56.096;12.664;2022-09-30T03:48:51;1.30;;;1.10;;
13731;SDS011;6937;56.096;12.664;2022-09-30T03:51:20;1.10;;;1.00;;
13731;SDS011;6937;56.096;12.664;2022-09-30T03:53:48;1.00;;;0.90;;
13731;SDS011;6937;56.096;12.664;2022-09-30T03:56:15;1.35;;;0.63;;
13731;SDS011;6937;56.096;12.664;2022-09-30T03:58:48;1.00;;;0.90;;
13731;SDS011;6937;56.096;12.664;2022-09-30T04:01:16;1.05;;;0.88;;
13731;SDS011;6937;56.096;12.664;2022-09-30T04:03:45;2.17;;;1.15;;
13731;SDS011;6937;56.096;12.664;2022-09-30T04:06:11;1.05;;;1.05;;
13731;SDS011;6937;56.096;12.664;2022-09-30T04:08:38;1.10;;;0.98;;
13731;SDS011;6937;56.096;12.664;2022-09-30T04:11:03;2.97;;;1.20;;
13731;SDS011;6937;56.096;12.664;2022-09-30T04:13:29;1.63;;;1.10;;
13731;SDS011;6937;56.096;12.664;2022-09-30T04:15:55;2.15;;;1.08;;
13731;SDS011;6937;56.096;12.664;2022-09-30T04:18:20;1.95;;;1.42;;
13731;SDS011;6937;56.096;12.664;2022-09-30T04:20:46;4.32;;;1.35;;
13731;SDS011;6937;56.096;12.664;2022-09-30T04:23:11;1.50;;;1.40;;
13731;SDS011;6937;56.096;12.664;2022-09-30T04:25:36;1.05;;;1.00;;
13731;SDS011;6937;56.096;12.664;2022-09-30T04:28:02;1.63;;;1.10;;
13731;SDS011;6937;56.096;12.664;2022-09-30T04:30:27;1.20;;;1.10;;
13731;SDS011;6937;56.096;12.664;2022-09-30T04:32:53;1.60;;;1.50;;
13731;SDS011;6937;56.096;12.664;2022-09-30T04:35:18;1.80;;;1.55;;
13731;SDS011;6937;56.096;12.664;2022-09-30T04:37:44;2.75;;;1.42;;
13731;SDS011;6937;56.096;12.664;2022-09-30T04:40:11;1.70;;;1.60;;
13731;SDS011;6937;56.096;12.664;2022-09-30T04:42:38;1.52;;;1.35;;
13731;SDS011;6937;56.096;12.664;2022-09-30T04:45:07;1.90;;;1.30;;
13731;SDS011;6937;56.096;12.664;2022-09-30T04:47:33;3.78;;;2.08;;
13731;SDS011;6937;56.096;12.664;2022-09-30T04:49:59;2.10;;;1.90;;
13731;SDS011;6937;56.096;12.664;2022-09-30T04:52:24;2.38;;;1.80;;
13731;SDS011;6937;56.096;12.664;2022-09-30T04:54:50;1.98;;;1.83;;
13731;SDS011;6937;56.096;12.664;2022-09-30T04:57:15;1.52;;;1.42;;
13731;SDS011;6937;56.096;12.664;2022-09-30T04:59:41;2.45;;;1.70;;
13731;SDS011;6937;56.096;12.664;2022-09-30T05:02:08;2.60;;;1.92;;
13731;SDS011;6937;56.096;12.664;2022-09-30T05:04:36;2.63;;;2.20;;
13731;SDS011;6937;56.096;12.664;2022-09-30T05:07:02;3.00;;;2.10;;
13731;SDS011;6937;56.096;12.664;2022-09-30T05:09:32;2.20;;;1.70;;
13731;SDS011;6937;56.096;12.664;2022-09-30T05:11:58;2.17;;;1.98;;
13731;SDS011;6937;56.096;12.664;2022-09-30T05:14:26;2.53;;;2.33;;
13731;SDS011;6937;56.096;12.664;2022-09-30T05:16:51;3.05;;;2.30;;
13731;SDS011;6937;56.096;12.664;2022-09-30T05:19:16;3.40;;;1.85;;
13731;SDS011;6937;56.096;12.664;2022-09-30T05:21:42;2.97;;;2.45;;
13731;SDS011;6937;56.096;12.664;2022-09-30T05:24:08;2.78;;;2.30;;
13731;SDS011;6937;56.096;12.664;2022-09-30T05:26:34;4.50;;;2.47;;
13731;SDS011;6937;56.096;12.664;2022-09-30T05:29:00;2.67;;;2.40;;
13731;SDS011;6937;56.096;12.664;2022-09-30T05:31:25;3.58;;;3.20;;
13731;SDS011;6937;56.096;12.664;2022-09-30T05:33:51;2.50;;;2.30;;
13731;SDS011;6937;56.096;12.664;2022-09-30T05:36:18;3.78;;;2.70;;
13731;SDS011;6937;56.096;12.664;2022-09-30T05:38:44;3.40;;;2.25;;
13731;SDS011;6937;56.096;12.664;2022-09-30T05:41:11;4.45;;;3.30;;
13731;SDS011;6937;56.096;12.664;2022-09-30T05:43:41;2.83;;;2.53;;
13731;SDS011;6937;56.096;12.664;2022-09-30T05:46:09;3.10;;;2.80;;
13731;SDS011;6937;56.096;12.664;2022-09-30T05:48:34;3.58;;;3.28;;
13731;SDS011;6937;56.096;12.664;2022-09-30T05:51:00;2.92;;;2.50;;
13731;SDS011;6937;56.096;12.664;2022-09-30T05:53:26;2.33;;;2.13;;
13731;SDS011;6937;56.096;12.664;2022-09-30T05:55:53;4.93;;;2.95;;
13731;SDS011;6937;56.096;12.664;2022-09-30T05:58:19;2.95;;;2.22;;
13731;SDS011;6937;56.096;12.664;2022-09-30T06:00:45;2.60;;;2.40;;
13731;SDS011;6937;56.096;12.664;2022-09-30T06:03:12;3.72;;;3.38;;
13731;SDS011;6937;56.096;12.664;2022-09-30T06:05:38;2.60;;;2.33;;
13731;SDS011;6937;56.096;12.664;2022-09-30T06:08:03;3.85;;;3.03;;
13731;SDS011;6937;56.096;12.664;2022-09-30T06:10:31;3.05;;;2.72;;
13731;SDS011;6937;56.096;12.664;2022-09-30T06:12:59;2.78;;;2.20;;
13731;SDS011;6937;56.096;12.664;2022-09-30T06:15:26;3.15;;;2.85;;
13731;SDS011;6937;56.096;12.664;2022-09-30T06:17:54;3.22;;;2.92;;
13731;SDS011;6937;56.096;12.664;2022-09-30T06:20:20;2.95;;;2.65;;
13731;SDS011;6937;56.096;12.664;2022-09-30T06:22:45;3.60;;;3.20;;
13731;SDS011;6937;56.096;12.664;2022-09-30T06:25:11;3.50;;;3.20;;
13731;SDS011;6937;56.096;12.664;2022-09-30T06:27:37;4.82;;;3.47;;
13731;SDS011;6937;56.096;12.664;2022-09-30T06:30:05;5.65;;;3.33;;
13731;SDS011;6937;56.096;12.664;2022-09-30T06:32:31;4.78;;;3.70;;
13731;SDS011;6937;56.096;12.664;2022-09-30T06:34:57;3.47;;;3.17;;
13731;SDS011;6937;56.096;12.664;2022-09-30T06:37:22;3.65;;;3.33;;
13731;SDS011;6937;56.096;12.664;2022-09-30T06:39:48;4.25;;;3.83;;
13731;SDS011;6937;56.096;12.664;2022-09-30T06:42:15;3.83;;;3.45;;
13731;SDS011;6937;56.096;12.664;2022-09-30T06:44:41;5.47;;;3.75;;
13731;SDS011;6937;56.096;12.664;2022-09-30T06:47:06;4.00;;;3.65;;
13731;SDS011;6937;56.096;12.664;2022-09-30T06:49:33;4.53;;;4.13;;
13731;SDS011;6937;56.096;12.664;2022-09-30T06:51:58;4.40;;;4.00;;
13731;SDS011;6937;56.096;12.664;2022-09-30T06:54:25;4.32;;;3.50;;
13731;SDS011;6937;56.096;12.664;2022-09-30T06:56:52;5.18;;;4.15;;
13731;SDS011;6937;56.096;12.664;2022-09-30T06:59:19;5.10;;;3.90;;
13731;SDS011;6937;56.096;12.664;2022-09-30T07:01:45;5.82;;;5.22;;
13731;SDS011;6937;56.096;12.664;2022-09-30T07:04:10;5.57;;;5.03;;
13731;SDS011;6937;56.096;12.664;2022-09-30T07:06:36;4.85;;;4.30;;
13731;SDS011;6937;56.096;12.664;2022-09-30T07:09:03;4.85;;;4.40;;
13731;SDS011;6937;56.096;12.664;2022-09-30T07:11:29;5.07;;;4.68;;
13731;SDS011;6937;56.096;12.664;2022-09-30T07:13:54;4.97;;;4.50;;
13731;SDS011;6937;56.096;12.664;2022-09-30T07:16:20;5.32;;;4.82;;
13731;SDS011;6937;56.096;12.664;2022-09-30T07:18:45;6.25;;;4.97;;
13731;SDS011;6937;56.096;12.664;2022-09-30T07:21:14;4.93;;;4.43;;
13731;SDS011;6937;56.096;12.664;2022-09-30T07:23:40;4.68;;;4.28;;
13731;SDS011;6937;56.096;12.664;2022-09-30T07:26:13;4.68;;;4.28;;
13731;SDS011;6937;56.096;12.664;2022-09-30T07:28:41;4.63;;;4.20;;
13731;SDS011;6937;56.096;12.664;2022-09-30T07:31:12;4.90;;;4.47;;
13731;SDS011;6937;56.096;12.664;2022-09-30T07:33:40;4.50;;;3.95;;
13731;SDS011;6937;56.096;12.664;2022-09-30T07:36:06;4.40;;;4.10;;
13731;SDS011;6937;56.096;12.664;2022-09-30T07:38:33;5.35;;;4.88;;
13731;SDS011;6937;56.096;12.664;2022-09-30T07:41:03;5.82;;;5.22;;
13731;SDS011;6937;56.096;12.664;2022-09-30T07:43:32;5.82;;;5.22;;
13731;SDS011;6937;56.096;12.664;2022-09-30T07:46:17;4.90;;;4.43;;
13731;SDS011;6937;56.096;12.664;2022-09-30T07:48:44;6.38;;;5.30;;
13731;SDS011;6937;56.096;12.664;2022-09-30T07:51:16;5.45;;;4.95;;
13731;SDS011;6937;56.096;12.664;2022-09-30T07:53:50;5.97;;;5.47;;
13731;SDS011;6937;56.096;12.664;2022-09-30T07:56:20;7.43;;;4.97;;
13731;SDS011;6937;56.096;12.664;2022-09-30T07:58:47;6.40;;;5.80;;
13731;SDS011;6937;56.096;12.664;2022-09-30T08:01:13;6.10;;;5.53;;
13731;SDS011;6937;56.096;12.664;2022-09-30T08:03:40;6.13;;;5.47;;
13731;SDS011;6937;56.096;12.664;2022-09-30T08:06:10;8.52;;;5.43;;
13731;SDS011;6937;56.096;12.664;2022-09-30T08:08:37;5.60;;;5.10;;
13731;SDS011;6937;56.096;12.664;2022-09-30T08:11:03;4.55;;;4.25;;
13731;SDS011;6937;56.096;12.664;2022-09-30T08:13:30;4.40;;;4.00;;
13731;SDS011;6937;56.096;12.664;2022-09-30T08:15:56;4.78;;;4.38;;
13731;SDS011;6937;56.096;12.664;2022-09-30T08:18:21;4.15;;;3.72;;
13731;SDS011;6937;56.096;12.664;2022-09-30T08:20:46;5.47;;;3.65;;
13731;SDS011;6937;56.096;12.664;2022-09-30T08:23:12;5.38;;;3.33;;
13731;SDS011;6937;56.096;12.664;2022-09-30T08:25:37;3.90;;;3.47;;
13731;SDS011;6937;56.096;12.664;2022-09-30T08:28:03;3.50;;;3.20;;
13731;SDS011;6937;56.096;12.664;2022-09-30T08:30:28;3.60;;;3.30;;
13731;SDS011;6937;56.096;12.664;2022-09-30T08:32:53;4.30;;;3.95;;
13731;SDS011;6937;56.096;12.664;2022-09-30T08:35:19;3.55;;;3.08;;
13731;SDS011;6937;56.096;12.664;2022-09-30T08:37:44;3.00;;;2.80;;
13731;SDS011;6937;56.096;12.664;2022-09-30T08:40:16;3.60;;;3.30;;
13731;SDS011;6937;56.096;12.664;2022-09-30T08:45:24;5.45;;;3.05;;
13731;SDS011;6937;56.096;12.664;2022-09-30T08:50:35;3.33;;;3.05;;
13731;SDS011;6937;56.096;12.664;2022-09-30T08:53:29;3.08;;;2.75;;
13731;SDS011;6937;56.096;12.664;2022-09-30T08:55:59;3.53;;;3.20;;
13731;SDS011;6937;56.096;12.664;2022-09-30T08:58:27;3.85;;;3.53;;
13731;SDS011;6937;56.096;12.664;2022-09-30T09:03:50;3.15;;;2.88;;
13731;SDS011;6937;56.096;12.664;2022-09-30T09:06:24;3.50;;;3.20;;
13731;SDS011;6937;56.096;12.664;2022-09-30T09:12:20;4.07;;;3.67;;
13731;SDS011;6937;56.096;12.664;2022-09-30T09:20:31;3.85;;;3.55;;
13731;SDS011;6937;56.096;12.664;2022-09-30T09:23:03;4.10;;;3.70;;
13731;SDS011;6937;56.096;12.664;2022-09-30T09:25:34;4.35;;;4.05;;
13731;SDS011;6937;56.096;12.664;2022-09-30T09:28:00;4.15;;;3.67;;
13731;SDS011;6937;56.096;12.664;2022-09-30T09:30:46;4.47;;;4.13;;
13731;SDS011;6937;56.096;12.664;2022-09-30T09:33:23;4.10;;;3.63;;
13731;SDS011;6937;56.096;12.664;2022-09-30T09:35:58;2.92;;;2.63;;
13731;SDS011;6937;56.096;12.664;2022-09-30T09:44:23;1.50;;;1.40;;
13731;SDS011;6937;56.096;12.664;2022-09-30T09:47:15;1.73;;;1.63;;
13731;SDS011;6937;56.096;12.664;2022-09-30T09:49:57;3.20;;;1.85;;
13731;SDS011;6937;56.096;12.664;2022-09-30T09:54:52;1.88;;;1.40;;
13731;SDS011;6937;56.096;12.664;2022-09-30T09:57:22;1.67;;;1.20;;
13731;SDS011;6937;56.096;12.664;2022-09-30T10:00:02;2.30;;;1.17;;
13731;SDS011;6937;56.096;12.664;2022-09-30T10:05:26;1.55;;;0.73;;
13731;SDS011;6937;56.096;12.664;2022-09-30T10:08:11;2.35;;;0.75;;
13731;SDS011;6937;56.096;12.664;2022-09-30T10:13:14;1.40;;;0.60;;
13731;SDS011;6937;56.096;12.664;2022-09-30T10:15:41;2.40;;;0.77;;
13731;SDS011;6937;56.096;12.664;2022-09-30T10:18:13;1.20;;;0.75;;
13731;SDS011;6937;56.096;12.664;2022-09-30T10:20:47;2.65;;;0.88;;
13731;SDS011;6937;56.096;12.664;2022-09-30T10:23:19;1.15;;;0.60;;
13731;SDS011;6937;56.096;12.664;2022-09-30T10:25:54;1.15;;;0.70;;
13731;SDS011;6937;56.096;12.664;2022-09-30T10:28:22;1.75;;;0.80;;
13731;SDS011;6937;56.096;12.664;2022-09-30T10:30:54;1.10;;;0.70;;
13731;SDS011;6937;56.096;12.664;2022-09-30T10:33:24;1.13;;;0.85;;
13731;SDS011;6937;56.096;12.664;2022-09-30T10:36:01;1.98;;;1.10;;
13731;SDS011;6937;56.096;12.664;2022-09-30T10:38:32;2.08;;;1.20;;
13731;SDS011;6937;56.096;12.664;2022-09-30T10:40:59;1.23;;;0.73;;
13731;SDS011;6937;56.096;12.664;2022-09-30T10:43:35;1.50;;;1.20;;
13731;SDS011;6937;56.096;12.664;2022-09-30T10:46:06;0.90;;;0.90;;
13731;SDS011;6937;56.096;12.664;2022-09-30T10:48:34;1.30;;;1.20;;
13731;SDS011;6937;56.096;12.664;2022-09-30T10:51:00;1.30;;;1.10;;
13731;SDS011;6937;56.096;12.664;2022-09-30T10:53:27;1.20;;;1.00;;
13731;SDS011;6937;56.096;12.664;2022-09-30T10:55:56;1.25;;;1.00;;
13731;SDS011;6937;56.096;12.664;2022-09-30T11:01:27;1.20;;;1.10;;
13731;SDS011;6937;56.096;12.664;2022-09-30T11:04:00;1.70;;;1.00;;
13731;SDS011;6937;56.096;12.664;2022-09-30T11:06:32;1.63;;;1.20;;
13731;SDS011;6937;56.096;12.664;2022-09-30T11:11:54;1.60;;;1.05;;
13731;SDS011;6937;56.096;12.664;2022-09-30T11:14:26;1.75;;;1.10;;
13731;SDS011;6937;56.096;12.664;2022-09-30T11:22:51;2.28;;;1.85;;
13731;SDS011;6937;56.096;12.664;2022-09-30T11:31:01;2.22;;;1.98;;
13731;SDS011;6937;56.096;12.664;2022-09-30T11:42:06;2.55;;;1.52;;
13731;SDS011;6937;56.096;12.664;2022-09-30T11:45:08;2.58;;;2.10;;
13731;SDS011;6937;56.096;12.664;2022-09-30T11:47:51;2.53;;;1.70;;
13731;SDS011;6937;56.096;12.664;2022-09-30T11:53:33;2.08;;;1.75;;
13731;SDS011;6937;56.096;12.664;2022-09-30T11:59:25;4.55;;;2.72;;
13731;SDS011;6937;56.096;12.664;2022-09-30T12:01:56;2.45;;;2.25;;
13731;SDS011;6937;56.096;12.664;2022-09-30T12:04:38;4.75;;;2.45;;
13731;SDS011;6937;56.096;12.664;2022-09-30T12:07:19;2.83;;;2.28;;
13731;SDS011;6937;56.096;12.664;2022-09-30T12:09:54;2.50;;;2.28;;
13731;SDS011;6937;56.096;12.664;2022-09-30T12:12:28;2.35;;;2.15;;
13731;SDS011;6937;56.096;12.664;2022-09-30T12:15:01;3.25;;;2.42;;
13731;SDS011;6937;56.096;12.664;2022-09-30T12:17:32;3.03;;;2.50;;
13731;SDS011;6937;56.096;12.664;2022-09-30T12:20:42;4.82;;;3.50;;
13731;SDS011;6937;56.096;12.664;2022-09-30T12:23:19;3.38;;;3.05;;
13731;SDS011;6937;56.096;12.664;2022-09-30T12:25:56;2.67;;;2.42;;
13731;SDS011;6937;56.096;12.664;2022-09-30T12:31:20;4.20;;;2.83;;
13731;SDS011;6937;56.096;12.664;2022-09-30T12:34:07;4.65;;;2.72;;
13731;SDS011;6937;56.096;12.664;2022-09-30T12:43:08;3.58;;;2.47;;
13731;SDS011;6937;56.096;12.664;2022-09-30T12:48:45;2.03;;;1.83;;
13731;SDS011;6937;56.096;12.664;2022-09-30T12:53:59;2.40;;;1.92;;
13731;SDS011;6937;56.096;12.664;2022-09-30T12:56:29;3.72;;;2.30;;
13731;SDS011;6937;56.096;12.664;2022-09-30T12:58:56;2.08;;;1.85;;
13731;SDS011;6937;56.096;12.664;2022-09-30T13:01:28;2.88;;;1.80;;
13731;SDS011;6937;56.096;12.664;2022-09-30T13:06:23;3.25;;;2.40;;
13731;SDS011;6937;56.096;12.664;2022-09-30T13:14:37;4.32;;;2.40;;
13731;SDS011;6937;56.096;12.664;2022-09-30T13:19:34;3.92;;;2.08;;
13731;SDS011;6937;56.096;12.664;2022-09-30T13:30:02;3.60;;;2.47;;
13731;SDS011;6937;56.096;12.664;2022-09-30T13:40:39;3.47;;;2.10;;
13731;SDS011;6937;56.096;12.664;2022-09-30T13:43:20;3.95;;;2.25;;
13731;SDS011;6937;56.096;12.664;2022-09-30T13:45:53;3.55;;;2.13;;
13731;SDS011;6937;56.096;12.664;2022-09-30T13:48:31;4.25;;;1.90;;
13731;SDS011;6937;56.096;12.664;2022-09-30T13:50:59;1.92;;;1.70;;
13731;SDS011;6937;56.096;12.664;2022-09-30T13:53:48;4.00;;;2.20;;
13731;SDS011;6937;56.096;12.664;2022-09-30T13:56:30;4.05;;;1.88;;
13731;SDS011;6937;56.096;12.664;2022-09-30T13:59:05;2.83;;;2.08;;
13731;SDS011;6937;56.096;12.664;2022-09-30T14:01:49;4.32;;;2.05;;
13731;SDS011;6937;56.096;12.664;2022-09-30T14:04:55;2.78;;;2.25;;
13731;SDS011;6937;56.096;12.664;2022-09-30T14:13:38;3.88;;;1.90;;
13731;SDS011;6937;56.096;12.664;2022-09-30T14:21:32;3.15;;;2.50;;
13731;SDS011;6937;56.096;12.664;2022-09-30T14:24:23;3.78;;;2.60;;
13731;SDS011;6937;56.096;12.664;2022-09-30T14:30:08;2.97;;;2.60;;
13731;SDS011;6937;56.096;12.664;2022-09-30T14:35:33;4.57;;;2.80;;
13731;SDS011;6937;56.096;12.664;2022-09-30T14:40:31;3.80;;;2.63;;
13731;SDS011;6937;56.096;12.664;2022-09-30T14:43:01;3.55;;;2.30;;
13731;SDS011;6937;56.096;12.664;2022-09-30T14:45:39;4.97;;;2.50;;
13731;SDS011;6937;56.096;12.664;2022-09-30T14:48:18;2.53;;;2.33;;
13731;SDS011;6937;56.096;12.664;2022-09-30T14:53:25;4.75;;;3.10;;
13731;SDS011;6937;56.096;12.664;2022-09-30T14:55:50;4.68;;;2.75;;
13731;SDS011;6937;56.096;12.664;2022-09-30T14:58:21;3.38;;;2.92;;
13731;SDS011;6937;56.096;12.664;2022-09-30T15:01:00;4.07;;;3.10;;
13731;SDS011;6937;56.096;12.664;2022-09-30T15:03:26;5.20;;;3.10;;
13731;SDS011;6937;56.096;12.664;2022-09-30T15:05:52;5.55;;;3.33;;
13731;SDS011;6937;56.096;12.664;2022-09-30T15:08:19;5.32;;;3.47;;
13731;SDS011;6937;56.096;12.664;2022-09-30T15:10:46;3.45;;;2.97;;
13731;SDS011;6937;56.096;12.664;2022-09-30T15:13:14;5.50;;;3.72;;
13731;SDS011;6937;56.096;12.664;2022-09-30T15:15:41;5.15;;;3.40;;
13731;SDS011;6937;56.096;12.664;2022-09-30T15:21:12;6.35;;;3.72;;
13731;SDS011;6937;56.096;12.664;2022-09-30T15:23:44;6.40;;;3.95;;
13731;SDS011;6937;56.096;12.664;2022-09-30T15:26:13;5.90;;;3.75;;
13731;SDS011;6937;56.096;12.664;2022-09-30T15:28:40;5.55;;;3.90;;
13731;SDS011;6937;56.096;12.664;2022-09-30T15:31:05;4.03;;;3.50;;
13731;SDS011;6937;56.096;12.664;2022-09-30T15:33:37;5.18;;;3.25;;
13731;SDS011;6937;56.096;12.664;2022-09-30T15:36:06;7.10;;;4.13;;
13731;SDS011;6937;56.096;12.664;2022-09-30T15:38:40;4.57;;;3.58;;
13731;SDS011;6937;56.096;12.664;2022-09-30T15:41:09;4.78;;;3.45;;
13731;SDS011;6937;56.096;12.664;2022-09-30T15:43:36;4.38;;;3.38;;
13731;SDS011;6937;56.096;12.664;2022-09-30T15:46:17;5.55;;;3.10;;
13731;SDS011;6937;56.096;12.664;2022-09-30T15:48:43;4.43;;;2.70;;
13731;SDS011;6937;56.096;12.664;2022-09-30T15:51:29;5.25;;;2.40;;
13731;SDS011;6937;56.096;12.664;2022-09-30T15:56:39;3.88;;;2.20;;
13731;SDS011;6937;56.096;12.664;2022-09-30T15:59:10;3.08;;;2.40;;
13731;SDS011;6937;56.096;12.664;2022-09-30T16:01:47;3.80;;;2.47;;
13731;SDS011;6937;56.096;12.664;2022-09-30T16:06:48;5.80;;;3.25;;
13731;SDS011;6937;56.096;12.664;2022-09-30T16:11:41;3.53;;;3.22;;
13731;SDS011;6937;56.096;12.664;2022-09-30T16:14:16;5.78;;;3.08;;
13731;SDS011;6937;56.096;12.664;2022-09-30T16:16:47;4.93;;;2.80;;
13731;SDS011;6937;56.096;12.664;2022-09-30T16:19:17;4.30;;;3.03;;
13731;SDS011;6937;56.096;12.664;2022-09-30T16:26:47;4.35;;;2.75;;
13731;SDS011;6937;56.096;12.664;2022-09-30T16:29:13;2.88;;;2.50;;
13731;SDS011;6937;56.096;12.664;2022-09-30T16:31:40;3.05;;;2.53;;
13731;SDS011;6937;56.096;12.664;2022-09-30T16:34:09;4.38;;;3.40;;
13731;SDS011;6937;56.096;12.664;2022-09-30T16:36:42;5.97;;;5.10;;
13731;SDS011;6937;56.096;12.664;2022-09-30T16:39:08;4.65;;;3.90;;
13731;SDS011;6937;56.096;12.664;2022-09-30T16:41:38;5.05;;;4.40;;
13731;SDS011;6937;56.096;12.664;2022-09-30T16:44:04;4.63;;;3.63;;
13731;SDS011;6937;56.096;12.664;2022-09-30T16:46:30;5.57;;;5.00;;
13731;SDS011;6937;56.096;12.664;2022-09-30T16:48:57;8.98;;;5.72;;
13731;SDS011;6937;56.096;12.664;2022-09-30T16:51:23;7.80;;;6.95;;
13731;SDS011;6937;56.096;12.664;2022-09-30T16:53:48;6.75;;;5.43;;
13731;SDS011;6937;56.096;12.664;2022-09-30T16:56:14;8.77;;;6.38;;
13731;SDS011;6937;56.096;12.664;2022-09-30T16:58:42;5.78;;;4.93;;
13731;SDS011;6937;56.096;12.664;2022-09-30T17:01:20;4.07;;;3.70;;
13731;SDS011;6937;56.096;12.664;2022-09-30T17:03:47;4.80;;;4.30;;
13731;SDS011;6937;56.096;12.664;2022-09-30T17:06:14;4.05;;;3.58;;
13731;SDS011;6937;56.096;12.664;2022-09-30T17:08:42;5.05;;;3.65;;
13731;SDS011;6937;56.096;12.664;2022-09-30T17:11:07;4.40;;;3.35;;
13731;SDS011;6937;56.096;12.664;2022-09-30T17:13:33;4.60;;;3.10;;
13731;SDS011;6937;56.096;12.664;2022-09-30T17:15:59;5.80;;;5.00;;
13731;SDS011;6937;56.096;12.664;2022-09-30T17:18:25;4.07;;;2.70;;
13731;SDS011;6937;56.096;12.664;2022-09-30T17:20:51;3.80;;;3.15;;
13731;SDS011;6937;56.096;12.664;2022-09-30T17:23:21;5.25;;;2.90;;
13731;SDS011;6937;56.096;12.664;2022-09-30T17:25:48;2.53;;;2.17;;
13731;SDS011;6937;56.096;12.664;2022-09-30T17:28:14;4.03;;;2.55;;
13731;SDS011;6937;56.096;12.664;2022-09-30T17:30:41;2.20;;;2.00;;
13731;SDS011;6937;56.096;12.664;2022-09-30T17:33:09;2.50;;;1.80;;
13731;SDS011;6937;56.096;12.664;2022-09-30T17:35:35;2.33;;;1.90;;
13731;SDS011;6937;56.096;12.664;2022-09-30T17:38:09;3.65;;;1.90;;
13731;SDS011;6937;56.096;12.664;2022-09-30T17:40:35;2.40;;;1.83;;
13731;SDS011;6937;56.096;12.664;2022-09-30T17:43:20;3.30;;;1.75;;
13731;SDS011;6937;56.096;12.664;2022-09-30T17:45:48;3.22;;;1.98;;
13731;SDS011;6937;56.096;12.664;2022-09-30T17:48:19;3.47;;;1.80;;
13731;SDS011;6937;56.096;12.664;2022-09-30T17:50:46;2.53;;;1.70;;
13731;SDS011;6937;56.096;12.664;2022-09-30T17:53:13;2.33;;;1.23;;
13731;SDS011;6937;56.096;12.664;2022-09-30T17:55:43;1.50;;;1.35;;
13731;SDS011;6937;56.096;12.664;2022-09-30T17:58:14;2.70;;;1.42;;
13731;SDS011;6937;56.096;12.664;2022-09-30T18:00:41;2.55;;;1.20;;
13731;SDS011;6937;56.096;12.664;2022-09-30T18:03:06;3.58;;;1.92;;
13731;SDS011;6937;56.096;12.664;2022-09-30T18:05:33;2.25;;;1.70;;
13731;SDS011;6937;56.096;12.664;2022-09-30T18:07:58;2.65;;;1.40;;
13731;SDS011;6937;56.096;12.664;2022-09-30T18:10:24;3.13;;;1.80;;
13731;SDS011;6937;56.096;12.664;2022-09-30T18:12:51;2.90;;;1.92;;
13731;SDS011;6937;56.096;12.664;2022-09-30T18:15:17;3.22;;;1.60;;
13731;SDS011;6937;56.096;12.664;2022-09-30T18:17:44;2.38;;;1.60;;
13731;SDS011;6937;56.096;12.664;2022-09-30T18:20:10;2.78;;;1.77;;
13731;SDS011;6937;56.096;12.664;2022-09-30T18:22:36;2.92;;;1.73;;
13731;SDS011;6937;56.096;12.664;2022-09-30T18:25:01;2.50;;;1.70;;
13731;SDS011;6937;56.096;12.664;2022-09-30T18:27:50;4.28;;;1.90;;
13731;SDS011;6937;56.096;12.664;2022-09-30T18:30:17;4.15;;;2.30;;
13731;SDS011;6937;56.096;12.664;2022-09-30T18:32:45;3.28;;;1.90;;
13731;SDS011;6937;56.096;12.664;2022-09-30T18:35:12;3.13;;;1.85;;